Time;durP1;ratioP1;P1;durP2;ratioP2;P2;SDS_P1;SDS_P2;PMS_P1;PMS_P2;Temp;Humidity;BMP_temperature;BMP_pressure;BME280_temperature;BME280_humidity;BME280_pressure;Samples;Min_cycle;Max_cycle;Signal;HPM_P1;HPM_P2
2022/08/21 00:00:26;;;;;;;2.70;1.67;;;23.70;99.90;;;;;;1051245;28;20850;-69
2022/08/21 00:01:12;;;;;;;3.00;1.70;;;23.70;99.90;;;;;;1056040;28;20085;-69
2022/08/21 00:01:43;;;;;;;3.38;1.77;;;23.70;99.90;;;;;;1055238;28;20486;-69
2022/08/21 00:02:18;;;;;;;2.80;2.13;;;23.70;99.90;;;;;;1050458;28;20607;-69
2022/08/21 00:02:58;;;;;;;2.35;1.73;;;23.70;99.90;;;;;;1051251;28;20008;-69
2022/08/21 00:03:29;;;;;;;3.15;1.70;;;23.70;99.90;;;;;;1051416;28;20094;-69
2022/08/21 00:04:05;;;;;;;3.00;1.63;;;23.70;99.90;;;;;;1053332;28;20024;-69
2022/08/21 00:04:36;;;;;;;2.72;1.88;;;23.70;99.90;;;;;;1055790;28;20673;-68
2022/08/21 00:05:07;;;;;;;2.07;1.80;;;23.70;99.90;;;;;;1051227;28;20522;-69
2022/08/21 00:05:41;;;;;;;3.57;1.70;;;23.70;99.90;;;;;;1051100;28;20016;-68
2022/08/21 00:06:12;;;;;;;1.75;1.40;;;23.70;99.90;;;;;;1051504;28;20467;-68
2022/08/21 00:06:43;;;;;;;2.75;1.80;;;23.70;99.90;;;;;;1051885;28;20517;-68
2022/08/21 00:07:14;;;;;;;3.00;2.13;;;23.70;99.90;;;;;;1055793;28;20023;-68
2022/08/21 00:07:44;;;;;;;2.37;1.80;;;23.70;99.90;;;;;;1055937;28;20381;-68
2022/08/21 00:08:16;;;;;;;2.43;1.80;;;23.70;99.90;;;;;;1051167;28;20050;-68
2022/08/21 00:08:46;;;;;;;2.85;1.75;;;23.70;99.90;;;;;;1051298;28;20020;-69
2022/08/21 00:09:19;;;;;;;1.97;1.63;;;23.70;99.90;;;;;;1051072;28;20095;-69
2022/08/21 00:09:50;;;;;;;2.15;1.77;;;23.70;99.90;;;;;;1047731;28;20016;-69
2022/08/21 00:10:21;;;;;;;2.77;1.90;;;23.70;99.90;;;;;;1051570;28;20107;-69
2022/08/21 00:10:52;;;;;;;2.08;1.58;;;23.70;99.90;;;;;;1054368;28;20016;-68
2022/08/21 00:11:23;;;;;;;3.43;2.13;;;23.70;99.90;;;;;;1055741;28;20012;-69
2022/08/21 00:11:53;;;;;;;3.05;1.67;;;23.70;99.90;;;;;;1056051;28;20008;-68
2022/08/21 00:12:24;;;;;;;3.27;2.00;;;23.60;99.90;;;;;;1055412;28;20024;-69
2022/08/21 00:12:54;;;;;;;2.27;1.97;;;23.60;99.90;;;;;;1055971;28;20153;-69
2022/08/21 00:13:25;;;;;;;3.07;2.00;;;23.60;99.90;;;;;;1055502;28;20465;-69
2022/08/21 00:13:56;;;;;;;3.20;2.20;;;23.60;99.90;;;;;;1056031;28;20837;-68
2022/08/21 00:14:26;;;;;;;1.93;1.27;;;23.60;99.90;;;;;;1051158;28;20023;-69
2022/08/21 00:14:58;;;;;;;2.10;1.80;;;23.60;99.90;;;;;;1051549;28;20026;-68
2022/08/21 00:15:30;;;;;;;3.35;2.08;;;23.60;99.90;;;;;;1050825;28;20135;-69
2022/08/21 00:16:02;;;;;;;2.30;1.58;;;23.60;99.90;;;;;;1051793;28;20028;-68
2022/08/21 00:16:33;;;;;;;2.95;1.75;;;23.60;99.90;;;;;;1055771;28;20020;-68
2022/08/21 00:17:04;;;;;;;4.30;1.80;;;23.60;99.90;;;;;;1055905;28;20015;-68
2022/08/21 00:17:36;;;;;;;1.58;1.40;;;23.60;99.90;;;;;;1055525;28;20024;-68
2022/08/21 00:18:08;;;;;;;2.35;1.80;;;23.60;99.90;;;;;;1051253;28;20024;-69
2022/08/21 00:18:39;;;;;;;2.97;1.95;;;23.60;99.90;;;;;;1050978;28;20091;-69
2022/08/21 00:19:10;;;;;;;3.47;1.93;;;23.60;99.90;;;;;;1051457;28;20400;-69
2022/08/21 00:19:41;;;;;;;3.08;2.58;;;23.60;99.90;;;;;;1051624;28;20020;-69
2022/08/21 00:20:14;;;;;;;3.53;2.13;;;23.50;99.90;;;;;;1055973;28;20054;-69
2022/08/21 00:20:46;;;;;;;3.50;2.10;;;23.60;99.90;;;;;;1055332;28;20081;-69
2022/08/21 00:21:16;;;;;;;1.83;1.63;;;23.50;99.90;;;;;;1051596;28;20020;-68
2022/08/21 00:21:47;;;;;;;3.87;2.20;;;23.50;99.90;;;;;;1051564;28;20012;-69
2022/08/21 00:22:18;;;;;;;2.17;1.80;;;23.50;99.90;;;;;;1051695;28;20182;-68
2022/08/21 00:22:49;;;;;;;2.70;1.97;;;23.50;99.90;;;;;;1054301;28;20024;-69
2022/08/21 00:23:20;;;;;;;3.05;1.67;;;23.50;99.90;;;;;;1055700;28;20107;-69
2022/08/21 00:23:51;;;;;;;3.10;1.77;;;23.50;99.90;;;;;;1055668;28;20022;-69
2022/08/21 00:24:23;;;;;;;2.45;1.98;;;23.50;99.90;;;;;;1051097;28;20728;-69
2022/08/21 00:24:54;;;;;;;3.58;2.13;;;23.50;99.90;;;;;;1051077;28;20024;-69
2022/08/21 00:25:25;;;;;;;4.97;2.07;;;23.50;99.90;;;;;;1051306;28;20024;-69
2022/08/21 00:25:56;;;;;;;3.03;1.70;;;23.50;99.90;;;;;;1051548;28;20417;-69
2022/08/21 00:26:26;;;;;;;2.13;1.50;;;23.50;99.90;;;;;;1055691;28;20563;-69
2022/08/21 00:26:57;;;;;;;3.63;2.13;;;23.50;99.90;;;;;;1052357;28;20074;-69
2022/08/21 00:27:27;;;;;;;2.47;1.60;;;23.50;99.90;;;;;;1051596;28;20122;-69
2022/08/21 00:27:58;;;;;;;2.47;1.90;;;23.50;99.90;;;;;;1051381;28;20012;-68
2022/08/21 00:28:30;;;;;;;2.53;1.87;;;23.50;99.90;;;;;;1050856;28;20012;-69
2022/08/21 00:29:00;;;;;;;2.22;1.60;;;23.50;99.90;;;;;;1050873;28;20015;-69
2022/08/21 00:29:31;;;;;;;3.73;2.10;;;23.50;99.90;;;;;;1051207;28;20043;-69
2022/08/21 00:30:03;;;;;;;3.67;2.47;;;23.50;99.90;;;;;;1050929;28;20031;-69
2022/08/21 00:30:34;;;;;;;2.70;1.90;;;23.50;99.90;;;;;;1051109;28;20024;-68
2022/08/21 00:31:05;;;;;;;2.28;2.08;;;23.50;99.90;;;;;;1051007;28;20404;-69
2022/08/21 00:31:36;;;;;;;2.37;1.93;;;23.50;99.90;;;;;;1051232;28;20475;-69
2022/08/21 00:32:07;;;;;;;2.38;1.73;;;23.50;99.90;;;;;;1051417;28;20444;-70
2022/08/21 00:32:39;;;;;;;3.30;2.00;;;23.50;99.90;;;;;;1055730;28;20447;-69
2022/08/21 00:33:11;;;;;;;1.98;1.65;;;23.50;99.90;;;;;;1055613;28;20390;-68
2022/08/21 00:33:42;;;;;;;2.33;1.80;;;23.50;99.90;;;;;;1055624;28;20020;-69
2022/08/21 00:34:13;;;;;;;2.43;1.73;;;23.50;99.90;;;;;;1055656;28;20410;-69
2022/08/21 00:34:44;;;;;;;2.55;2.08;;;23.40;99.90;;;;;;1051205;28;20031;-69
2022/08/21 00:35:17;;;;;;;2.80;2.20;;;23.40;99.90;;;;;;1050856;28;20027;-69
2022/08/21 00:35:48;;;;;;;3.05;2.05;;;23.40;99.90;;;;;;1051400;28;20081;-69
2022/08/21 00:36:18;;;;;;;3.00;1.93;;;23.40;99.90;;;;;;1050961;28;20436;-69
2022/08/21 00:36:49;;;;;;;4.23;1.87;;;23.40;99.90;;;;;;1051112;28;20022;-69
2022/08/21 00:37:20;;;;;;;3.07;2.00;;;23.40;99.90;;;;;;1051061;28;20040;-69
2022/08/21 00:37:51;;;;;;;2.50;2.00;;;23.40;99.90;;;;;;1046652;28;20535;-69
2022/08/21 00:38:21;;;;;;;2.57;1.70;;;23.40;99.90;;;;;;1046911;28;20503;-68
2022/08/21 00:38:52;;;;;;;3.50;2.03;;;23.40;99.90;;;;;;1051152;28;20534;-70
2022/08/21 00:39:22;;;;;;;2.43;1.70;;;23.40;99.90;;;;;;1051062;28;20012;-69
2022/08/21 00:39:53;;;;;;;2.63;2.00;;;23.40;99.90;;;;;;1055878;28;20024;-70
2022/08/21 00:40:53;;;;;;;2.33;1.73;;;23.40;99.90;;;;;;1055332;28;20012;-68
2022/08/21 00:41:25;;;;;;;2.22;1.65;;;23.40;99.90;;;;;;1055663;28;20012;-69
2022/08/21 00:41:55;;;;;;;1.83;1.63;;;23.40;99.90;;;;;;1055809;28;20084;-69
2022/08/21 00:42:28;;;;;;;3.27;2.40;;;23.40;99.90;;;;;;1050964;28;20098;-69
2022/08/21 00:43:02;;;;;;;3.33;1.80;;;23.40;99.90;;;;;;1051187;28;20104;-69
2022/08/21 00:43:35;;;;;;;2.55;2.10;;;23.40;99.90;;;;;;1050912;28;20012;-69
2022/08/21 00:44:10;;;;;;;2.28;1.75;;;23.40;99.90;;;;;;1052438;28;20051;-70
2022/08/21 00:44:46;;;;;;;3.05;1.98;;;23.40;99.90;;;;;;1055535;28;20058;-69
2022/08/21 00:45:16;;;;;;;4.15;2.35;;;23.40;99.90;;;;;;1055630;28;20016;-69
2022/08/21 00:45:48;;;;;;;2.97;2.33;;;23.40;99.90;;;;;;1051487;28;20016;-69
2022/08/21 00:46:18;;;;;;;3.05;1.95;;;23.40;99.90;;;;;;1046994;28;20036;-69
2022/08/21 00:46:49;;;;;;;3.40;2.13;;;23.40;99.90;;;;;;1047373;28;20024;-69
2022/08/21 00:47:20;;;;;;;2.50;2.00;;;23.40;99.90;;;;;;1046858;28;20122;-69
2022/08/21 00:47:52;;;;;;;3.17;2.28;;;23.40;99.90;;;;;;1046850;28;20028;-69
2022/08/21 00:48:23;;;;;;;1.98;1.70;;;23.40;99.90;;;;;;1047202;28;20017;-69
2022/08/21 00:48:54;;;;;;;3.45;2.13;;;23.40;99.90;;;;;;1047019;28;20079;-69
2022/08/21 00:49:25;;;;;;;2.67;1.80;;;23.40;99.90;;;;;;1051095;28;20058;-69
2022/08/21 00:49:56;;;;;;;3.03;2.30;;;23.40;99.90;;;;;;1051079;28;20020;-69
2022/08/21 00:50:31;;;;;;;2.00;1.80;;;23.40;99.90;;;;;;1051085;28;20533;-70
2022/08/21 00:51:09;;;;;;;2.40;1.70;;;23.40;99.90;;;;;;1055695;28;20023;-69
2022/08/21 00:51:55;;;;;;;2.83;2.10;;;23.30;99.90;;;;;;1055654;28;20087;-69
2022/08/21 00:52:29;;;;;;;4.60;2.83;;;23.30;99.90;;;;;;1055664;28;20060;-69
2022/08/21 00:53:02;;;;;;;3.15;2.28;;;23.30;99.90;;;;;;1055334;28;20016;-69
2022/08/21 00:53:37;;;;;;;2.10;1.80;;;23.30;99.90;;;;;;1055748;28;20764;-68
2022/08/21 00:54:10;;;;;;;2.65;1.90;;;23.30;99.90;;;;;;1055350;28;20011;-69
2022/08/21 00:54:41;;;;;;;2.83;2.15;;;23.30;99.90;;;;;;1055358;28;20020;-69
2022/08/21 00:55:13;;;;;;;5.07;2.20;;;23.30;99.90;;;;;;1055407;28;20022;-69
2022/08/21 00:55:45;;;;;;;2.60;2.05;;;23.30;99.90;;;;;;1055387;28;20861;-69
2022/08/21 00:56:15;;;;;;;3.58;2.22;;;23.30;99.90;;;;;;1055308;28;20722;-69
2022/08/21 00:56:51;;;;;;;2.97;1.90;;;23.30;99.90;;;;;;1055526;28;20527;-69
2022/08/21 00:57:26;;;;;;;3.40;2.38;;;23.30;99.90;;;;;;1055063;28;20634;-69
2022/08/21 00:58:00;;;;;;;3.13;2.08;;;23.30;99.90;;;;;;1055492;28;20004;-69
2022/08/21 00:58:32;;;;;;;4.93;2.38;;;23.30;99.90;;;;;;1050619;28;20490;-68
2022/08/21 00:59:03;;;;;;;4.53;2.35;;;23.30;99.90;;;;;;1050606;28;20098;-69
2022/08/21 00:59:38;;;;;;;2.67;2.28;;;23.30;99.90;;;;;;1050769;28;20050;-69
2022/08/21 01:00:13;;;;;;;2.47;1.90;;;23.20;99.90;;;;;;1050947;28;20020;-69
2022/08/21 01:00:47;;;;;;;2.63;2.00;;;23.20;99.90;;;;;;1050493;28;20020;-70
2022/08/21 01:01:17;;;;;;;3.83;1.95;;;23.20;99.90;;;;;;1050733;28;20440;-69
2022/08/21 01:01:49;;;;;;;2.40;2.20;;;23.20;99.90;;;;;;1050834;28;20027;-69
2022/08/21 01:02:20;;;;;;;3.55;2.47;;;23.20;99.90;;;;;;1050719;28;20488;-69
2022/08/21 01:02:50;;;;;;;3.63;2.37;;;23.20;99.90;;;;;;1051112;28;20505;-69
2022/08/21 01:03:24;;;;;;;2.90;2.30;;;23.20;99.90;;;;;;1055369;28;20011;-69
2022/08/21 01:03:54;;;;;;;3.75;2.50;;;23.20;99.90;;;;;;1050387;28;20052;-69
2022/08/21 01:04:25;;;;;;;2.40;2.03;;;23.20;99.90;;;;;;1050795;28;20378;-69
2022/08/21 01:04:56;;;;;;;2.63;2.00;;;23.20;99.90;;;;;;1050722;28;20077;-70
2022/08/21 01:05:27;;;;;;;2.60;2.00;;;23.20;99.90;;;;;;1055023;28;20018;-68
2022/08/21 01:05:58;;;;;;;2.72;2.13;;;23.20;99.90;;;;;;1059304;27;20650;-69
2022/08/21 01:06:28;;;;;;;3.07;2.47;;;23.20;99.90;;;;;;1059341;27;20439;-69
2022/08/21 01:07:00;;;;;;;3.17;2.20;;;23.20;99.90;;;;;;1058857;27;20017;-69
2022/08/21 01:07:31;;;;;;;3.42;2.15;;;23.20;99.90;;;;;;1055490;28;20012;-69
2022/08/21 01:08:03;;;;;;;2.70;2.17;;;23.20;99.90;;;;;;1055297;28;20045;-69
2022/08/21 01:08:35;;;;;;;2.50;2.30;;;23.20;99.90;;;;;;1055661;28;20018;-69
2022/08/21 01:09:05;;;;;;;2.85;2.05;;;23.20;99.90;;;;;;1050461;28;20016;-68
2022/08/21 01:09:37;;;;;;;1.87;1.77;;;23.20;99.90;;;;;;1050343;28;20055;-67
2022/08/21 01:10:08;;;;;;;2.30;1.95;;;23.20;99.90;;;;;;1046649;28;20131;-69
2022/08/21 01:10:41;;;;;;;3.33;2.08;;;23.20;99.90;;;;;;1047404;28;20410;-69
2022/08/21 01:11:12;;;;;;;3.65;2.10;;;23.20;99.90;;;;;;1050812;28;20022;-68
2022/08/21 01:11:43;;;;;;;2.40;1.67;;;23.20;99.90;;;;;;1050896;28;20020;-67
2022/08/21 01:12:14;;;;;;;2.25;1.80;;;23.20;99.90;;;;;;1051379;28;20069;-68
2022/08/21 01:12:45;;;;;;;3.67;2.58;;;23.10;99.90;;;;;;1055561;28;20062;-68
2022/08/21 01:13:18;;;;;;;4.00;2.40;;;23.10;99.90;;;;;;1055150;28;20026;-68
2022/08/21 01:13:49;;;;;;;2.67;1.90;;;23.10;99.90;;;;;;1055653;28;20915;-68
2022/08/21 01:14:20;;;;;;;2.97;2.20;;;23.20;99.90;;;;;;1050531;28;20020;-69
2022/08/21 01:14:50;;;;;;;2.40;1.92;;;23.10;99.90;;;;;;1051225;28;20909;-68
2022/08/21 01:15:24;;;;;;;3.87;1.80;;;23.10;99.90;;;;;;1050767;28;20110;-68
2022/08/21 01:15:57;;;;;;;3.28;1.90;;;23.10;99.90;;;;;;1051696;28;20081;-68
2022/08/21 01:16:28;;;;;;;3.22;2.38;;;23.10;99.90;;;;;;1055423;28;20252;-68
2022/08/21 01:17:01;;;;;;;3.67;2.58;;;23.10;99.90;;;;;;1055588;28;20028;-68
2022/08/21 01:17:33;;;;;;;5.50;2.22;;;23.10;99.90;;;;;;1055288;28;20054;-68
2022/08/21 01:18:06;;;;;;;2.80;2.30;;;23.10;99.90;;;;;;1050923;28;20030;-68
2022/08/21 01:18:37;;;;;;;1.85;1.50;;;23.10;99.90;;;;;;1046464;28;20021;-68
2022/08/21 01:19:08;;;;;;;2.27;2.07;;;23.10;99.90;;;;;;1046768;28;20017;-68
2022/08/21 01:19:39;;;;;;;2.80;2.20;;;23.10;99.90;;;;;;1047295;28;20028;-68
2022/08/21 01:20:11;;;;;;;2.92;2.17;;;23.10;99.90;;;;;;1051502;28;20056;-68
2022/08/21 01:20:56;;;;;;;2.45;2.03;;;23.10;99.90;;;;;;1055306;28;20026;-68
2022/08/21 01:21:27;;;;;;;2.70;2.17;;;23.10;99.90;;;;;;1055316;28;20027;-68
2022/08/21 01:21:59;;;;;;;2.70;1.90;;;23.10;99.90;;;;;;1055594;28;20115;-68
2022/08/21 01:22:30;;;;;;;2.10;1.60;;;23.10;99.90;;;;;;1055429;28;20030;-68
2022/08/21 01:23:03;;;;;;;2.57;1.93;;;23.10;99.90;;;;;;1054663;28;20023;-69
2022/08/21 01:23:37;;;;;;;2.75;1.98;;;23.10;99.90;;;;;;1050768;28;20103;-69
2022/08/21 01:24:08;;;;;;;2.90;1.95;;;23.10;99.90;;;;;;1051169;28;20066;-69
2022/08/21 01:24:39;;;;;;;2.57;2.30;;;23.10;99.90;;;;;;1050461;28;20077;-68
2022/08/21 01:25:11;;;;;;;3.63;2.20;;;23.10;99.90;;;;;;1047509;28;20452;-68
2022/08/21 01:25:41;;;;;;;2.40;2.03;;;23.10;99.90;;;;;;1050748;28;20020;-69
2022/08/21 01:26:15;;;;;;;2.87;2.20;;;23.10;99.90;;;;;;1051084;28;20042;-69
2022/08/21 01:26:46;;;;;;;2.08;1.92;;;23.10;99.90;;;;;;1051542;28;20439;-68
2022/08/21 01:27:17;;;;;;;2.67;1.63;;;23.10;99.90;;;;;;1055661;28;20020;-68
2022/08/21 01:27:48;;;;;;;3.23;2.30;;;23.10;99.90;;;;;;1050811;28;20020;-69
2022/08/21 01:28:20;;;;;;;3.47;2.15;;;23.10;99.90;;;;;;1050777;28;20028;-68
2022/08/21 01:29:09;;;;;;;2.58;2.03;;;23.10;99.90;;;;;;1050851;28;20020;-68
2022/08/21 01:30:07;;;;;;;2.55;2.00;;;23.10;99.90;;;;;;1054313;28;20498;-68
2022/08/21 01:30:39;;;;;;;3.05;2.20;;;23.10;99.90;;;;;;1050898;28;20028;-68
2022/08/21 01:31:14;;;;;;;2.70;2.25;;;23.00;99.90;;;;;;1051266;28;20020;-68
2022/08/21 01:31:44;;;;;;;3.78;2.30;;;23.00;99.90;;;;;;1053829;28;20050;-68
2022/08/21 01:32:18;;;;;;;2.83;2.10;;;23.00;99.90;;;;;;1055357;28;20011;-68
2022/08/21 01:32:50;;;;;;;3.45;2.50;;;23.00;99.90;;;;;;1051152;28;20027;-68
2022/08/21 01:33:23;;;;;;;2.53;1.80;;;23.00;99.90;;;;;;1050732;28;20012;-68
2022/08/21 01:33:55;;;;;;;3.63;2.22;;;23.10;99.90;;;;;;1046946;28;20075;-68
2022/08/21 01:34:26;;;;;;;3.80;2.13;;;23.00;99.90;;;;;;1047406;28;20013;-68
2022/08/21 01:34:56;;;;;;;2.33;2.00;;;23.00;99.90;;;;;;1046635;28;20059;-68
2022/08/21 01:35:27;;;;;;;2.90;2.20;;;23.00;99.90;;;;;;1046753;28;20024;-68
2022/08/21 01:35:57;;;;;;;3.37;2.10;;;23.00;99.90;;;;;;1042694;28;20025;-68
2022/08/21 01:36:29;;;;;;;2.63;2.13;;;23.00;99.90;;;;;;1046787;28;20024;-68
2022/08/21 01:36:59;;;;;;;3.13;2.30;;;23.00;99.90;;;;;;1050974;28;20026;-68
2022/08/21 01:37:30;;;;;;;4.03;2.13;;;23.00;99.90;;;;;;1050957;28;20019;-68
2022/08/21 01:38:01;;;;;;;2.73;1.80;;;23.00;99.90;;;;;;1055133;28;20088;-67
2022/08/21 01:38:32;;;;;;;2.63;1.90;;;23.00;99.90;;;;;;1055254;28;20634;-68
2022/08/21 01:39:04;;;;;;;2.83;2.30;;;23.00;99.90;;;;;;1050899;28;20106;-68
2022/08/21 01:39:35;;;;;;;2.33;2.13;;;23.00;99.90;;;;;;1050605;28;20673;-69
2022/08/21 01:40:07;;;;;;;2.65;2.17;;;23.00;99.90;;;;;;1050764;28;20020;-68
2022/08/21 01:40:38;;;;;;;2.20;1.98;;;22.90;99.90;;;;;;1051284;28;20032;-68
2022/08/21 01:41:08;;;;;;;2.90;2.53;;;22.90;99.90;;;;;;1055580;28;20019;-69
2022/08/21 01:41:39;;;;;;;2.67;2.13;;;23.00;99.90;;;;;;1055233;28;20149;-68
2022/08/21 01:42:10;;;;;;;2.67;2.10;;;22.90;99.90;;;;;;1055575;28;20016;-68
2022/08/21 01:42:41;;;;;;;2.10;1.85;;;22.90;99.90;;;;;;1055301;28;20359;-68
2022/08/21 01:43:12;;;;;;;3.25;2.50;;;22.90;99.90;;;;;;1050912;28;20509;-68
2022/08/21 01:43:44;;;;;;;2.43;2.13;;;22.90;99.90;;;;;;1050456;28;20559;-68
2022/08/21 01:44:14;;;;;;;3.10;2.40;;;22.90;99.90;;;;;;1050959;28;20200;-69
2022/08/21 01:44:45;;;;;;;2.87;2.23;;;22.90;99.90;;;;;;1051016;28;20103;-68
2022/08/21 01:45:16;;;;;;;4.20;2.13;;;22.90;99.90;;;;;;1055389;28;20081;-68
2022/08/21 01:45:46;;;;;;;3.50;2.33;;;22.90;99.90;;;;;;1051356;28;20502;-68
2022/08/21 01:46:18;;;;;;;2.47;2.10;;;22.90;99.90;;;;;;1051409;28;20024;-69
2022/08/21 01:46:50;;;;;;;2.72;2.22;;;22.90;99.90;;;;;;1051646;28;20674;-68
2022/08/21 01:47:20;;;;;;;3.00;2.47;;;22.90;99.90;;;;;;1055610;28;20012;-68
2022/08/21 01:47:51;;;;;;;3.67;2.30;;;22.90;99.90;;;;;;1055435;28;20020;-68
2022/08/21 01:48:22;;;;;;;2.73;2.10;;;22.90;99.90;;;;;;1055361;28;20057;-68
2022/08/21 01:48:52;;;;;;;3.20;2.20;;;22.90;99.90;;;;;;1055206;28;20012;-68
2022/08/21 01:49:23;;;;;;;4.07;2.77;;;22.90;99.90;;;;;;1055533;28;20802;-67
2022/08/21 01:49:53;;;;;;;2.13;1.93;;;22.90;99.90;;;;;;1050646;28;20018;-68
2022/08/21 01:50:24;;;;;;;2.70;2.10;;;22.90;99.90;;;;;;1050597;28;20482;-68
2022/08/21 01:50:57;;;;;;;2.47;2.10;;;22.90;99.90;;;;;;1050827;28;20050;-68
2022/08/21 01:51:28;;;;;;;2.35;2.15;;;22.90;99.90;;;;;;1050992;28;20053;-68
2022/08/21 01:51:58;;;;;;;2.17;1.80;;;22.90;99.90;;;;;;1050624;28;20045;-67
2022/08/21 01:52:29;;;;;;;2.83;2.53;;;22.90;99.90;;;;;;1051000;28;20016;-67
2022/08/21 01:53:00;;;;;;;2.50;2.00;;;22.90;99.90;;;;;;1050811;28;20433;-68
2022/08/21 01:53:30;;;;;;;2.67;2.13;;;22.90;99.90;;;;;;1051064;28;20008;-68
2022/08/21 01:54:02;;;;;;;3.22;2.25;;;22.90;99.90;;;;;;1055165;28;20012;-67
2022/08/21 01:54:33;;;;;;;4.25;2.35;;;22.90;99.90;;;;;;1055412;28;20023;-67
2022/08/21 01:55:05;;;;;;;2.22;2.03;;;22.80;99.90;;;;;;1055195;28;20015;-67
2022/08/21 01:55:36;;;;;;;2.92;1.80;;;22.80;99.90;;;;;;1050697;28;20016;-68
2022/08/21 01:56:09;;;;;;;4.00;2.30;;;22.90;99.90;;;;;;1050797;28;20016;-67
2022/08/21 01:56:43;;;;;;;2.63;2.40;;;22.80;99.90;;;;;;1050797;28;20045;-68
2022/08/21 01:57:14;;;;;;;3.00;2.05;;;22.80;99.90;;;;;;1055655;27;20015;-67
2022/08/21 01:57:45;;;;;;;2.22;2.03;;;22.80;99.90;;;;;;1059450;27;20077;-66
2022/08/21 01:58:16;;;;;;;2.30;2.10;;;22.80;99.90;;;;;;1059059;27;20532;-67
2022/08/21 01:58:47;;;;;;;4.20;2.30;;;22.80;99.90;;;;;;1059034;27;20575;-68
2022/08/21 01:59:19;;;;;;;2.60;1.98;;;22.80;99.90;;;;;;1055203;28;20015;-68
2022/08/21 01:59:49;;;;;;;2.42;2.13;;;22.90;99.90;;;;;;1055576;28;20057;-67
2022/08/21 02:00:22;;;;;;;2.87;2.23;;;22.80;99.90;;;;;;1055225;28;20096;-68
2022/08/21 02:00:53;;;;;;;2.97;2.28;;;22.80;99.90;;;;;;1055475;28;20012;-69
2022/08/21 02:01:24;;;;;;;2.50;2.30;;;22.80;99.90;;;;;;1055145;28;20023;-68
2022/08/21 02:01:55;;;;;;;2.13;1.87;;;22.80;99.90;;;;;;1055500;28;20008;-68
2022/08/21 02:02:25;;;;;;;2.93;2.40;;;22.80;99.90;;;;;;1055022;28;20006;-70
2022/08/21 02:02:56;;;;;;;3.23;2.43;;;22.80;99.90;;;;;;1055460;28;20260;-69
2022/08/21 02:03:28;;;;;;;2.83;2.30;;;22.80;99.90;;;;;;1055244;28;20295;-68
2022/08/21 02:03:59;;;;;;;2.95;2.30;;;22.80;99.90;;;;;;1055182;28;20015;-69
2022/08/21 02:04:30;;;;;;;2.83;2.38;;;22.80;99.90;;;;;;1055321;28;20000;-69
2022/08/21 02:05:01;;;;;;;2.70;2.03;;;22.80;99.90;;;;;;1055463;28;20018;-69
2022/08/21 02:05:32;;;;;;;2.50;2.20;;;22.80;99.90;;;;;;1055122;28;20004;-68
2022/08/21 02:06:04;;;;;;;2.60;2.08;;;22.80;99.90;;;;;;1053643;28;20004;-68
2022/08/21 02:06:35;;;;;;;3.10;2.40;;;22.80;99.90;;;;;;1051057;28;20123;-69
2022/08/21 02:07:06;;;;;;;3.20;2.42;;;22.80;99.90;;;;;;1051274;28;20034;-68
2022/08/21 02:07:46;;;;;;;2.30;2.10;;;22.80;99.90;;;;;;1054960;28;20137;-68
2022/08/21 02:08:17;;;;;;;2.42;2.05;;;22.80;99.90;;;;;;1055137;28;20035;-68
2022/08/21 02:08:47;;;;;;;3.40;2.43;;;22.80;99.90;;;;;;1055127;28;20062;-67
2022/08/21 02:09:18;;;;;;;2.80;2.40;;;22.80;99.90;;;;;;1055082;28;20094;-69
2022/08/21 02:09:49;;;;;;;3.40;2.10;;;22.80;99.90;;;;;;1055170;28;20034;-68
2022/08/21 02:10:29;;;;;;;2.23;2.03;;;22.80;99.90;;;;;;1055415;28;20030;-69
2022/08/21 02:11:00;;;;;;;3.75;2.40;;;22.80;99.90;;;;;;1054953;28;20190;-67
2022/08/21 02:11:31;;;;;;;4.30;2.27;;;22.80;99.90;;;;;;1055629;28;20026;-68
2022/08/21 02:12:02;;;;;;;4.55;2.20;;;22.70;99.90;;;;;;1055045;28;20016;-67
2022/08/21 02:12:33;;;;;;;3.92;2.60;;;22.70;99.90;;;;;;1050784;28;20024;-68
2022/08/21 02:13:04;;;;;;;2.33;1.98;;;22.80;99.90;;;;;;1050445;28;20038;-68
2022/08/21 02:13:34;;;;;;;3.03;1.93;;;22.70;99.90;;;;;;1051069;28;20035;-69
2022/08/21 02:14:09;;;;;;;2.27;2.00;;;22.80;99.90;;;;;;1050651;28;20019;-68
2022/08/21 02:14:39;;;;;;;2.40;2.08;;;22.70;99.90;;;;;;1055542;28;20820;-68
2022/08/21 02:15:10;;;;;;;3.33;2.50;;;22.70;99.90;;;;;;1055178;28;20568;-69
2022/08/21 02:15:40;;;;;;;2.63;2.20;;;22.70;99.90;;;;;;1055278;28;20096;-68
2022/08/21 02:16:12;;;;;;;2.87;2.33;;;22.70;99.90;;;;;;1055227;28;20016;-68
2022/08/21 02:16:44;;;;;;;2.75;2.15;;;22.70;99.90;;;;;;1055418;28;20047;-69
2022/08/21 02:17:14;;;;;;;3.22;2.42;;;22.70;99.90;;;;;;1055199;28;20024;-69
2022/08/21 02:17:49;;;;;;;4.50;2.70;;;22.70;99.90;;;;;;1055331;28;20044;-69
2022/08/21 02:18:20;;;;;;;3.65;2.53;;;22.70;99.90;;;;;;1055168;28;20559;-68
2022/08/21 02:18:50;;;;;;;4.27;2.40;;;22.70;99.90;;;;;;1055429;28;20498;-68
2022/08/21 02:19:21;;;;;;;3.53;2.47;;;22.70;99.90;;;;;;1055114;28;20051;-68
2022/08/21 02:19:51;;;;;;;3.03;2.73;;;22.70;99.90;;;;;;1055459;28;20324;-68
2022/08/21 02:20:27;;;;;;;2.80;2.23;;;22.70;99.90;;;;;;1055220;28;20400;-67
2022/08/21 02:20:57;;;;;;;3.35;2.33;;;22.70;99.90;;;;;;1050799;28;20081;-67
2022/08/21 02:21:28;;;;;;;3.70;2.53;;;22.70;99.90;;;;;;1050601;28;20140;-68
2022/08/21 02:21:58;;;;;;;2.90;2.20;;;22.70;99.90;;;;;;1050830;28;20052;-68
2022/08/21 02:22:29;;;;;;;2.60;2.20;;;22.70;99.90;;;;;;1050475;28;20491;-68
2022/08/21 02:23:00;;;;;;;3.13;2.23;;;22.70;99.90;;;;;;1049930;28;20032;-68
2022/08/21 02:23:32;;;;;;;4.95;2.25;;;22.60;99.90;;;;;;1046427;28;20036;-68
2022/08/21 02:24:03;;;;;;;3.03;2.40;;;22.60;99.90;;;;;;1046750;28;20488;-68
2022/08/21 02:24:34;;;;;;;2.50;2.30;;;22.60;99.90;;;;;;1046791;28;20270;-67
2022/08/21 02:25:05;;;;;;;3.83;2.57;;;22.60;99.90;;;;;;1054449;28;20016;-67
2022/08/21 02:25:36;;;;;;;2.88;2.33;;;22.60;99.90;;;;;;1055006;28;20105;-68
2022/08/21 02:26:08;;;;;;;2.88;2.58;;;22.70;99.90;;;;;;1055502;28;20016;-68
2022/08/21 02:26:38;;;;;;;3.63;2.60;;;22.60;99.90;;;;;;1050325;28;20438;-69
2022/08/21 02:27:09;;;;;;;2.27;2.07;;;22.60;99.90;;;;;;1050804;28;20760;-68
2022/08/21 02:27:42;;;;;;;2.57;1.90;;;22.60;99.90;;;;;;1050536;28;20032;-68
2022/08/21 02:28:14;;;;;;;2.30;2.10;;;22.60;99.90;;;;;;1051533;28;20016;-69
2022/08/21 02:28:45;;;;;;;2.63;2.30;;;22.60;99.90;;;;;;1055058;28;20023;-67
2022/08/21 02:29:16;;;;;;;2.80;2.50;;;22.60;99.90;;;;;;1055443;28;20312;-69
2022/08/21 02:29:46;;;;;;;3.90;2.13;;;22.60;99.90;;;;;;1055042;28;20055;-69
2022/08/21 02:30:24;;;;;;;2.93;2.20;;;22.60;99.90;;;;;;1055272;28;20106;-68
2022/08/21 02:30:56;;;;;;;2.28;2.08;;;22.60;99.90;;;;;;1055349;28;20362;-69
2022/08/21 02:31:27;;;;;;;2.67;2.20;;;22.60;99.90;;;;;;1055316;28;20015;-69
2022/08/21 02:31:58;;;;;;;2.43;2.00;;;22.60;99.90;;;;;;1055103;28;20047;-69
2022/08/21 02:32:29;;;;;;;2.95;2.45;;;22.60;99.90;;;;;;1055514;28;20107;-69
2022/08/21 02:32:59;;;;;;;2.83;2.03;;;22.60;99.90;;;;;;1050479;28;20028;-69
2022/08/21 02:33:30;;;;;;;2.60;2.27;;;22.60;99.90;;;;;;1050752;28;20012;-69
2022/08/21 02:34:01;;;;;;;2.60;1.60;;;22.60;99.90;;;;;;1050531;28;20028;-69
2022/08/21 02:34:31;;;;;;;2.30;2.00;;;22.60;99.90;;;;;;1051107;28;20127;-69
2022/08/21 02:35:03;;;;;;;3.27;2.03;;;22.60;99.90;;;;;;1054796;28;20016;-69
2022/08/21 02:35:34;;;;;;;3.55;2.13;;;22.60;99.90;;;;;;1055419;28;20024;-69
2022/08/21 02:36:06;;;;;;;3.20;2.50;;;22.60;99.90;;;;;;1055236;28;20019;-69
2022/08/21 02:36:37;;;;;;;3.13;2.10;;;22.60;99.90;;;;;;1055248;28;20049;-68
2022/08/21 02:37:07;;;;;;;3.23;2.20;;;22.60;99.90;;;;;;1055236;28;20567;-69
2022/08/21 02:37:50;;;;;;;2.93;2.13;;;22.60;99.90;;;;;;1050745;28;20076;-69
2022/08/21 02:38:24;;;;;;;3.90;2.53;;;22.60;99.90;;;;;;1050415;28;20020;-70
2022/08/21 02:38:55;;;;;;;2.78;2.40;;;22.60;99.90;;;;;;1050831;28;20042;-68
2022/08/21 02:39:26;;;;;;;3.10;2.35;;;22.60;99.90;;;;;;1053134;28;20020;-69
2022/08/21 02:39:58;;;;;;;3.20;2.13;;;22.60;99.90;;;;;;1055215;28;20099;-69
2022/08/21 02:40:33;;;;;;;2.72;2.30;;;22.60;99.90;;;;;;1055111;28;20070;-70
2022/08/21 02:41:14;;;;;;;2.25;2.00;;;22.60;99.90;;;;;;1055199;28;20034;-69
2022/08/21 02:41:44;;;;;;;2.78;2.05;;;22.60;99.90;;;;;;1050644;28;20043;-69
2022/08/21 02:42:15;;;;;;;2.83;2.10;;;22.60;99.90;;;;;;1046634;28;20020;-68
2022/08/21 02:42:46;;;;;;;2.58;1.90;;;22.60;99.90;;;;;;1045490;28;20070;-69
2022/08/21 02:43:19;;;;;;;2.87;2.43;;;22.60;99.90;;;;;;1042578;28;20106;-69
2022/08/21 02:43:50;;;;;;;3.08;2.10;;;22.50;99.90;;;;;;1048818;28;20728;-68
2022/08/21 02:44:20;;;;;;;4.13;2.67;;;22.50;99.90;;;;;;1051158;28;20429;-69
2022/08/21 02:44:51;;;;;;;4.47;2.13;;;22.60;99.90;;;;;;1055198;28;20257;-69
2022/08/21 02:45:21;;;;;;;3.60;2.17;;;22.50;99.90;;;;;;1054756;28;20045;-69
2022/08/21 02:45:53;;;;;;;4.57;2.67;;;22.50;99.90;;;;;;1054745;28;20027;-69
2022/08/21 02:46:24;;;;;;;2.17;1.90;;;22.50;99.90;;;;;;1050713;28;20028;-69
2022/08/21 02:46:55;;;;;;;3.07;2.07;;;22.50;99.90;;;;;;1050558;28;20055;-69